sensor_id;sensor_type;location;lat;lon;timestamp;P1;durP1;ratioP1;P2;durP2;ratioP2
24467;SDS011;12634;50.852;5.676;2023-12-20T00:02:16;13.82;;;8.50;;
24467;SDS011;12634;50.852;5.676;2023-12-20T00:04:44;10.77;;;6.10;;
24467;SDS011;12634;50.852;5.676;2023-12-20T00:07:11;13.63;;;7.00;;
24467;SDS011;12634;50.852;5.676;2023-12-20T00:09:38;13.43;;;6.97;;
24467;SDS011;12634;50.852;5.676;2023-12-20T00:12:05;10.48;;;6.72;;
24467;SDS011;12634;50.852;5.676;2023-12-20T00:14:33;7.80;;;5.03;;
24467;SDS011;12634;50.852;5.676;2023-12-20T00:17:01;9.23;;;4.35;;
24467;SDS011;12634;50.852;5.676;2023-12-20T00:19:28;9.32;;;3.83;;
24467;SDS011;12634;50.852;5.676;2023-12-20T00:21:56;8.02;;;3.30;;
24467;SDS011;12634;50.852;5.676;2023-12-20T00:24:24;5.82;;;2.60;;
24467;SDS011;12634;50.852;5.676;2023-12-20T00:26:51;7.47;;;2.72;;
24467;SDS011;12634;50.852;5.676;2023-12-20T00:29:19;9.00;;;2.50;;
24467;SDS011;12634;50.852;5.676;2023-12-20T00:31:46;13.15;;;3.20;;
24467;SDS011;12634;50.852;5.676;2023-12-20T00:34:14;12.77;;;3.28;;
24467;SDS011;12634;50.852;5.676;2023-12-20T00:36:41;10.27;;;3.13;;
24467;SDS011;12634;50.852;5.676;2023-12-20T00:39:09;11.07;;;2.83;;
24467;SDS011;12634;50.852;5.676;2023-12-20T00:41:36;9.40;;;3.25;;
24467;SDS011;12634;50.852;5.676;2023-12-20T00:44:03;12.30;;;2.78;;
24467;SDS011;12634;50.852;5.676;2023-12-20T00:46:31;8.63;;;2.28;;
24467;SDS011;12634;50.852;5.676;2023-12-20T00:48:58;10.93;;;2.95;;
24467;SDS011;12634;50.852;5.676;2023-12-20T00:51:27;8.43;;;2.20;;
24467;SDS011;12634;50.852;5.676;2023-12-20T00:53:54;10.20;;;2.30;;
24467;SDS011;12634;50.852;5.676;2023-12-20T00:56:21;5.05;;;1.88;;
24467;SDS011;12634;50.852;5.676;2023-12-20T00:58:49;7.95;;;2.60;;
24467;SDS011;12634;50.852;5.676;2023-12-20T01:01:16;8.23;;;2.47;;
24467;SDS011;12634;50.852;5.676;2023-12-20T01:03:43;10.35;;;2.08;;
24467;SDS011;12634;50.852;5.676;2023-12-20T01:06:10;8.38;;;1.98;;
24467;SDS011;12634;50.852;5.676;2023-12-20T01:08:39;14.45;;;2.17;;
24467;SDS011;12634;50.852;5.676;2023-12-20T01:11:06;7.88;;;2.63;;
24467;SDS011;12634;50.852;5.676;2023-12-20T01:13:33;3.83;;;1.70;;
24467;SDS011;12634;50.852;5.676;2023-12-20T01:16:00;4.75;;;1.70;;
24467;SDS011;12634;50.852;5.676;2023-12-20T01:18:27;13.85;;;1.65;;
24467;SDS011;12634;50.852;5.676;2023-12-20T01:20:55;11.15;;;1.90;;
24467;SDS011;12634;50.852;5.676;2023-12-20T01:23:22;6.90;;;2.22;;
24467;SDS011;12634;50.852;5.676;2023-12-20T01:25:50;6.57;;;2.15;;
24467;SDS011;12634;50.852;5.676;2023-12-20T01:28:18;5.18;;;2.00;;
24467;SDS011;12634;50.852;5.676;2023-12-20T01:30:46;9.18;;;1.50;;
24467;SDS011;12634;50.852;5.676;2023-12-20T01:33:13;5.97;;;1.75;;
24467;SDS011;12634;50.852;5.676;2023-12-20T01:35:40;6.13;;;2.33;;
24467;SDS011;12634;50.852;5.676;2023-12-20T01:38:07;9.07;;;1.67;;
24467;SDS011;12634;50.852;5.676;2023-12-20T01:40:37;5.78;;;1.42;;
24467;SDS011;12634;50.852;5.676;2023-12-20T01:43:07;5.68;;;1.77;;
24467;SDS011;12634;50.852;5.676;2023-12-20T01:45:34;16.88;;;2.10;;
24467;SDS011;12634;50.852;5.676;2023-12-20T01:48:02;7.47;;;1.48;;
24467;SDS011;12634;50.852;5.676;2023-12-20T01:50:31;11.02;;;1.95;;
24467;SDS011;12634;50.852;5.676;2023-12-20T01:52:59;8.07;;;1.98;;
24467;SDS011;12634;50.852;5.676;2023-12-20T01:55:27;4.40;;;0.88;;
24467;SDS011;12634;50.852;5.676;2023-12-20T01:57:57;9.63;;;2.35;;
24467;SDS011;12634;50.852;5.676;2023-12-20T02:00:27;5.85;;;2.03;;
24467;SDS011;12634;50.852;5.676;2023-12-20T02:02:55;11.38;;;2.35;;
24467;SDS011;12634;50.852;5.676;2023-12-20T02:05:27;9.10;;;2.08;;
24467;SDS011;12634;50.852;5.676;2023-12-20T02:07:54;7.88;;;2.10;;
24467;SDS011;12634;50.852;5.676;2023-12-20T02:10:21;7.60;;;2.45;;
24467;SDS011;12634;50.852;5.676;2023-12-20T02:12:48;7.53;;;2.38;;
24467;SDS011;12634;50.852;5.676;2023-12-20T02:15:16;9.05;;;2.45;;
24467;SDS011;12634;50.852;5.676;2023-12-20T02:17:44;7.47;;;2.33;;
24467;SDS011;12634;50.852;5.676;2023-12-20T02:20:13;8.57;;;2.92;;
24467;SDS011;12634;50.852;5.676;2023-12-20T02:22:42;5.10;;;1.95;;
24467;SDS011;12634;50.852;5.676;2023-12-20T02:25:09;9.02;;;2.13;;
24467;SDS011;12634;50.852;5.676;2023-12-20T02:27:36;7.75;;;1.90;;
24467;SDS011;12634;50.852;5.676;2023-12-20T02:30:04;6.32;;;2.22;;
24467;SDS011;12634;50.852;5.676;2023-12-20T02:32:32;8.10;;;1.95;;
24467;SDS011;12634;50.852;5.676;2023-12-20T02:34:59;7.30;;;2.28;;
24467;SDS011;12634;50.852;5.676;2023-12-20T02:37:26;13.82;;;2.42;;
24467;SDS011;12634;50.852;5.676;2023-12-20T02:39:55;12.48;;;2.75;;
24467;SDS011;12634;50.852;5.676;2023-12-20T02:42:22;10.30;;;2.40;;
24467;SDS011;12634;50.852;5.676;2023-12-20T02:44:49;4.32;;;2.22;;
24467;SDS011;12634;50.852;5.676;2023-12-20T02:47:16;9.98;;;2.63;;
24467;SDS011;12634;50.852;5.676;2023-12-20T02:49:43;10.90;;;3.10;;
24467;SDS011;12634;50.852;5.676;2023-12-20T02:52:10;12.55;;;3.08;;
24467;SDS011;12634;50.852;5.676;2023-12-20T02:54:37;6.28;;;1.98;;
24467;SDS011;12634;50.852;5.676;2023-12-20T02:57:07;6.45;;;2.20;;
24467;SDS011;12634;50.852;5.676;2023-12-20T02:59:34;8.85;;;2.17;;
24467;SDS011;12634;50.852;5.676;2023-12-20T03:02:01;5.22;;;1.80;;
24467;SDS011;12634;50.852;5.676;2023-12-20T03:04:28;10.30;;;2.53;;
24467;SDS011;12634;50.852;5.676;2023-12-20T03:06:56;8.15;;;2.35;;
24467;SDS011;12634;50.852;5.676;2023-12-20T03:09:23;10.20;;;2.05;;
24467;SDS011;12634;50.852;5.676;2023-12-20T03:11:50;4.85;;;2.30;;
24467;SDS011;12634;50.852;5.676;2023-12-20T03:14:18;9.70;;;2.40;;
24467;SDS011;12634;50.852;5.676;2023-12-20T03:16:46;10.07;;;3.17;;
24467;SDS011;12634;50.852;5.676;2023-12-20T03:19:15;7.45;;;1.90;;
24467;SDS011;12634;50.852;5.676;2023-12-20T03:21:43;11.25;;;2.58;;
24467;SDS011;12634;50.852;5.676;2023-12-20T03:24:11;3.22;;;2.20;;
24467;SDS011;12634;50.852;5.676;2023-12-20T03:26:38;5.88;;;2.42;;
24467;SDS011;12634;50.852;5.676;2023-12-20T03:29:05;7.25;;;2.20;;
24467;SDS011;12634;50.852;5.676;2023-12-20T03:31:34;7.20;;;3.17;;
24467;SDS011;12634;50.852;5.676;2023-12-20T03:34:01;13.52;;;2.22;;
24467;SDS011;12634;50.852;5.676;2023-12-20T03:36:28;6.88;;;2.03;;
24467;SDS011;12634;50.852;5.676;2023-12-20T03:38:55;3.20;;;1.90;;
24467;SDS011;12634;50.852;5.676;2023-12-20T03:41:22;10.35;;;3.05;;
24467;SDS011;12634;50.852;5.676;2023-12-20T03:43:49;9.50;;;1.95;;
24467;SDS011;12634;50.852;5.676;2023-12-20T03:46:16;3.05;;;1.50;;
24467;SDS011;12634;50.852;5.676;2023-12-20T03:48:45;5.15;;;1.80;;
24467;SDS011;12634;50.852;5.676;2023-12-20T03:51:12;7.68;;;2.20;;
24467;SDS011;12634;50.852;5.676;2023-12-20T03:53:39;7.88;;;2.63;;
24467;SDS011;12634;50.852;5.676;2023-12-20T03:56:07;15.90;;;2.65;;
24467;SDS011;12634;50.852;5.676;2023-12-20T03:58:34;8.75;;;1.75;;
24467;SDS011;12634;50.852;5.676;2023-12-20T04:01:01;8.07;;;2.00;;
24467;SDS011;12634;50.852;5.676;2023-12-20T04:03:28;10.82;;;2.28;;
24467;SDS011;12634;50.852;5.676;2023-12-20T04:05:57;9.32;;;2.30;;
24467;SDS011;12634;50.852;5.676;2023-12-20T04:08:24;7.60;;;2.80;;
24467;SDS011;12634;50.852;5.676;2023-12-20T04:10:51;7.95;;;2.70;;
24467;SDS011;12634;50.852;5.676;2023-12-20T04:13:18;3.30;;;1.50;;
24467;SDS011;12634;50.852;5.676;2023-12-20T04:15:45;8.10;;;2.65;;
24467;SDS011;12634;50.852;5.676;2023-12-20T04:18:15;7.90;;;2.00;;
24467;SDS011;12634;50.852;5.676;2023-12-20T04:20:42;9.68;;;3.00;;
24467;SDS011;12634;50.852;5.676;2023-12-20T04:23:11;7.45;;;2.30;;
24467;SDS011;12634;50.852;5.676;2023-12-20T04:25:38;3.58;;;1.92;;
24467;SDS011;12634;50.852;5.676;2023-12-20T04:28:05;8.02;;;1.73;;
24467;SDS011;12634;50.852;5.676;2023-12-20T04:30:32;3.60;;;1.88;;
24467;SDS011;12634;50.852;5.676;2023-12-20T04:33:00;6.28;;;2.22;;
24467;SDS011;12634;50.852;5.676;2023-12-20T04:35:28;6.95;;;2.30;;
24467;SDS011;12634;50.852;5.676;2023-12-20T04:37:55;12.98;;;2.80;;
24467;SDS011;12634;50.852;5.676;2023-12-20T04:40:24;9.80;;;2.33;;
24467;SDS011;12634;50.852;5.676;2023-12-20T04:42:51;4.35;;;1.58;;
24467;SDS011;12634;50.852;5.676;2023-12-20T04:45:17;11.82;;;2.40;;
24467;SDS011;12634;50.852;5.676;2023-12-20T04:47:44;6.07;;;1.52;;
24467;SDS011;12634;50.852;5.676;2023-12-20T04:50:12;7.53;;;2.15;;
24467;SDS011;12634;50.852;5.676;2023-12-20T04:52:39;6.90;;;2.35;;
24467;SDS011;12634;50.852;5.676;2023-12-20T04:55:07;5.30;;;2.22;;
24467;SDS011;12634;50.852;5.676;2023-12-20T04:57:35;4.93;;;2.17;;
24467;SDS011;12634;50.852;5.676;2023-12-20T05:00:03;14.18;;;3.10;;
24467;SDS011;12634;50.852;5.676;2023-12-20T05:02:31;9.23;;;3.08;;
24467;SDS011;12634;50.852;5.676;2023-12-20T05:04:58;4.85;;;1.83;;
24467;SDS011;12634;50.852;5.676;2023-12-20T05:07:25;5.00;;;2.70;;
24467;SDS011;12634;50.852;5.676;2023-12-20T05:09:52;13.63;;;2.80;;
24467;SDS011;12634;50.852;5.676;2023-12-20T05:12:19;5.28;;;2.28;;
24467;SDS011;12634;50.852;5.676;2023-12-20T05:14:48;4.78;;;2.10;;
24467;SDS011;12634;50.852;5.676;2023-12-20T05:17:15;13.23;;;2.97;;
24467;SDS011;12634;50.852;5.676;2023-12-20T05:19:42;7.90;;;2.83;;
24467;SDS011;12634;50.852;5.676;2023-12-20T05:22:09;6.50;;;3.22;;
24467;SDS011;12634;50.852;5.676;2023-12-20T05:24:36;7.05;;;2.13;;
24467;SDS011;12634;50.852;5.676;2023-12-20T05:27:04;11.93;;;3.20;;
24467;SDS011;12634;50.852;5.676;2023-12-20T05:29:31;8.50;;;3.40;;
24467;SDS011;12634;50.852;5.676;2023-12-20T05:32:00;10.82;;;3.70;;
24467;SDS011;12634;50.852;5.676;2023-12-20T05:34:27;10.25;;;2.53;;
24467;SDS011;12634;50.852;5.676;2023-12-20T05:36:54;8.73;;;2.95;;
24467;SDS011;12634;50.852;5.676;2023-12-20T05:39:21;12.05;;;3.92;;
24467;SDS011;12634;50.852;5.676;2023-12-20T05:41:48;12.93;;;3.88;;
24467;SDS011;12634;50.852;5.676;2023-12-20T05:44:15;9.15;;;2.30;;
24467;SDS011;12634;50.852;5.676;2023-12-20T05:46:43;7.95;;;2.88;;
24467;SDS011;12634;50.852;5.676;2023-12-20T05:49:11;17.75;;;3.15;;
24467;SDS011;12634;50.852;5.676;2023-12-20T05:51:38;10.20;;;2.60;;
24467;SDS011;12634;50.852;5.676;2023-12-20T05:54:05;15.57;;;3.40;;
24467;SDS011;12634;50.852;5.676;2023-12-20T05:56:33;12.15;;;3.67;;
24467;SDS011;12634;50.852;5.676;2023-12-20T05:59:00;6.95;;;2.60;;
24467;SDS011;12634;50.852;5.676;2023-12-20T06:01:27;9.43;;;3.28;;
24467;SDS011;12634;50.852;5.676;2023-12-20T06:03:54;9.63;;;3.00;;
24467;SDS011;12634;50.852;5.676;2023-12-20T06:06:23;7.90;;;2.58;;
24467;SDS011;12634;50.852;5.676;2023-12-20T06:08:50;9.75;;;3.03;;
24467;SDS011;12634;50.852;5.676;2023-12-20T06:11:17;8.75;;;2.47;;
24467;SDS011;12634;50.852;5.676;2023-12-20T06:13:44;9.52;;;2.70;;
24467;SDS011;12634;50.852;5.676;2023-12-20T06:16:11;10.70;;;3.40;;
24467;SDS011;12634;50.852;5.676;2023-12-20T06:18:39;14.38;;;4.18;;
24467;SDS011;12634;50.852;5.676;2023-12-20T06:21:06;12.32;;;3.10;;
24467;SDS011;12634;50.852;5.676;2023-12-20T06:23:39;8.02;;;2.95;;
24467;SDS011;12634;50.852;5.676;2023-12-20T06:26:06;7.65;;;2.50;;
24467;SDS011;12634;50.852;5.676;2023-12-20T06:28:33;7.70;;;2.42;;
24467;SDS011;12634;50.852;5.676;2023-12-20T06:31:00;13.95;;;3.15;;
24467;SDS011;12634;50.852;5.676;2023-12-20T06:33:28;11.60;;;2.95;;
24467;SDS011;12634;50.852;5.676;2023-12-20T06:35:56;12.35;;;3.72;;
24467;SDS011;12634;50.852;5.676;2023-12-20T06:38:23;6.40;;;2.50;;
24467;SDS011;12634;50.852;5.676;2023-12-20T06:40:52;14.40;;;3.30;;
24467;SDS011;12634;50.852;5.676;2023-12-20T06:43:19;7.13;;;2.55;;
24467;SDS011;12634;50.852;5.676;2023-12-20T06:45:46;13.77;;;3.70;;
24467;SDS011;12634;50.852;5.676;2023-12-20T06:48:13;8.55;;;3.35;;
24467;SDS011;12634;50.852;5.676;2023-12-20T06:50:40;5.80;;;2.58;;
24467;SDS011;12634;50.852;5.676;2023-12-20T06:53:08;9.95;;;3.58;;
24467;SDS011;12634;50.852;5.676;2023-12-20T06:55:35;12.80;;;2.47;;
24467;SDS011;12634;50.852;5.676;2023-12-20T06:58:04;11.30;;;3.33;;
24467;SDS011;12634;50.852;5.676;2023-12-20T07:00:31;9.55;;;3.20;;
24467;SDS011;12634;50.852;5.676;2023-12-20T07:02:59;11.90;;;3.58;;
24467;SDS011;12634;50.852;5.676;2023-12-20T07:05:26;12.73;;;3.50;;
24467;SDS011;12634;50.852;5.676;2023-12-20T07:07:53;12.20;;;2.85;;
24467;SDS011;12634;50.852;5.676;2023-12-20T07:10:20;15.63;;;3.88;;
24467;SDS011;12634;50.852;5.676;2023-12-20T07:12:47;12.13;;;4.03;;
24467;SDS011;12634;50.852;5.676;2023-12-20T07:15:17;11.15;;;3.03;;
24467;SDS011;12634;50.852;5.676;2023-12-20T07:17:44;7.53;;;3.13;;
24467;SDS011;12634;50.852;5.676;2023-12-20T07:20:12;9.02;;;2.58;;
24467;SDS011;12634;50.852;5.676;2023-12-20T07:22:39;19.60;;;3.13;;
24467;SDS011;12634;50.852;5.676;2023-12-20T07:25:06;7.95;;;3.33;;
24467;SDS011;12634;50.852;5.676;2023-12-20T07:27:34;9.88;;;3.30;;
24467;SDS011;12634;50.852;5.676;2023-12-20T07:30:01;12.80;;;3.58;;
24467;SDS011;12634;50.852;5.676;2023-12-20T07:32:30;8.18;;;2.80;;
24467;SDS011;12634;50.852;5.676;2023-12-20T07:34:57;10.30;;;3.30;;
24467;SDS011;12634;50.852;5.676;2023-12-20T07:37:24;8.73;;;3.33;;
24467;SDS011;12634;50.852;5.676;2023-12-20T07:39:51;12.30;;;3.22;;
24467;SDS011;12634;50.852;5.676;2023-12-20T07:42:18;10.30;;;3.58;;
24467;SDS011;12634;50.852;5.676;2023-12-20T07:44:47;10.65;;;3.05;;
24467;SDS011;12634;50.852;5.676;2023-12-20T07:47:14;8.38;;;3.45;;
24467;SDS011;12634;50.852;5.676;2023-12-20T07:49:48;10.52;;;3.72;;
24467;SDS011;12634;50.852;5.676;2023-12-20T07:52:16;8.02;;;2.85;;
24467;SDS011;12634;50.852;5.676;2023-12-20T07:54:44;8.95;;;3.22;;
24467;SDS011;12634;50.852;5.676;2023-12-20T07:57:11;6.65;;;2.58;;
24467;SDS011;12634;50.852;5.676;2023-12-20T07:59:38;6.55;;;1.90;;
24467;SDS011;12634;50.852;5.676;2023-12-20T08:02:05;6.32;;;3.00;;
24467;SDS011;12634;50.852;5.676;2023-12-20T08:04:32;12.05;;;4.28;;
24467;SDS011;12634;50.852;5.676;2023-12-20T08:07:01;18.30;;;2.88;;
24467;SDS011;12634;50.852;5.676;2023-12-20T08:09:28;9.85;;;3.15;;
24467;SDS011;12634;50.852;5.676;2023-12-20T08:11:57;9.30;;;4.15;;
24467;SDS011;12634;50.852;5.676;2023-12-20T08:14:25;5.50;;;2.67;;
24467;SDS011;12634;50.852;5.676;2023-12-20T08:16:52;6.45;;;3.28;;
24467;SDS011;12634;50.852;5.676;2023-12-20T08:19:19;1.45;;;1.02;;
24467;SDS011;12634;50.852;5.676;2023-12-20T08:21:46;16.67;;;3.38;;
24467;SDS011;12634;50.852;5.676;2023-12-20T08:24:15;9.48;;;3.47;;
24467;SDS011;12634;50.852;5.676;2023-12-20T08:26:42;12.23;;;3.92;;
24467;SDS011;12634;50.852;5.676;2023-12-20T08:29:09;11.13;;;3.20;;
24467;SDS011;12634;50.852;5.676;2023-12-20T08:31:36;6.20;;;2.63;;
24467;SDS011;12634;50.852;5.676;2023-12-20T08:34:03;11.00;;;2.63;;
24467;SDS011;12634;50.852;5.676;2023-12-20T08:36:30;8.27;;;2.35;;
24467;SDS011;12634;50.852;5.676;2023-12-20T08:38:58;3.53;;;1.88;;
24467;SDS011;12634;50.852;5.676;2023-12-20T08:41:27;8.00;;;2.83;;
24467;SDS011;12634;50.852;5.676;2023-12-20T08:43:54;6.50;;;2.72;;
24467;SDS011;12634;50.852;5.676;2023-12-20T08:46:21;13.38;;;3.85;;
24467;SDS011;12634;50.852;5.676;2023-12-20T08:48:48;11.90;;;2.28;;
24467;SDS011;12634;50.852;5.676;2023-12-20T08:51:16;19.23;;;2.40;;
24467;SDS011;12634;50.852;5.676;2023-12-20T08:53:43;7.90;;;1.83;;
24467;SDS011;12634;50.852;5.676;2023-12-20T08:56:12;11.30;;;2.28;;
24467;SDS011;12634;50.852;5.676;2023-12-20T08:58:41;7.38;;;1.73;;
24467;SDS011;12634;50.852;5.676;2023-12-20T09:01:08;4.25;;;1.50;;
24467;SDS011;12634;50.852;5.676;2023-12-20T09:03:35;5.13;;;1.67;;
24467;SDS011;12634;50.852;5.676;2023-12-20T09:06:03;11.35;;;2.50;;
24467;SDS011;12634;50.852;5.676;2023-12-20T09:08:30;10.73;;;2.40;;
24467;SDS011;12634;50.852;5.676;2023-12-20T09:10:57;6.55;;;1.58;;
24467;SDS011;12634;50.852;5.676;2023-12-20T09:13:25;8.48;;;2.28;;
24467;SDS011;12634;50.852;5.676;2023-12-20T09:15:55;4.75;;;1.45;;
24467;SDS011;12634;50.852;5.676;2023-12-20T09:18:22;7.18;;;1.33;;
24467;SDS011;12634;50.852;5.676;2023-12-20T09:20:49;8.75;;;2.47;;
24467;SDS011;12634;50.852;5.676;2023-12-20T09:23:17;7.97;;;2.78;;
24467;SDS011;12634;50.852;5.676;2023-12-20T09:25:44;4.95;;;1.65;;
24467;SDS011;12634;50.852;5.676;2023-12-20T09:28:12;4.47;;;1.88;;
24467;SDS011;12634;50.852;5.676;2023-12-20T09:30:39;11.52;;;2.55;;
24467;SDS011;12634;50.852;5.676;2023-12-20T09:33:08;12.13;;;2.20;;
24467;SDS011;12634;50.852;5.676;2023-12-20T09:35:35;10.38;;;1.73;;
24467;SDS011;12634;50.852;5.676;2023-12-20T09:38:02;3.60;;;1.38;;
24467;SDS011;12634;50.852;5.676;2023-12-20T09:40:30;8.48;;;2.00;;
24467;SDS011;12634;50.852;5.676;2023-12-20T09:43:04;8.82;;;2.28;;
24467;SDS011;12634;50.852;5.676;2023-12-20T09:45:35;8.40;;;2.45;;
24467;SDS011;12634;50.852;5.676;2023-12-20T09:48:03;8.10;;;2.13;;
24467;SDS011;12634;50.852;5.676;2023-12-20T09:50:32;3.47;;;1.20;;
24467;SDS011;12634;50.852;5.676;2023-12-20T09:53:01;11.15;;;2.35;;
24467;SDS011;12634;50.852;5.676;2023-12-20T09:55:31;4.43;;;1.20;;
24467;SDS011;12634;50.852;5.676;2023-12-20T09:57:59;6.90;;;1.80;;
24467;SDS011;12634;50.852;5.676;2023-12-20T10:00:27;3.58;;;1.10;;
24467;SDS011;12634;50.852;5.676;2023-12-20T10:02:56;4.88;;;1.25;;
24467;SDS011;12634;50.852;5.676;2023-12-20T10:05:26;13.48;;;3.50;;
24467;SDS011;12634;50.852;5.676;2023-12-20T10:07:56;4.50;;;1.40;;
24467;SDS011;12634;50.852;5.676;2023-12-20T10:10:24;10.20;;;2.80;;
24467;SDS011;12634;50.852;5.676;2023-12-20T10:13:01;4.03;;;1.88;;
24467;SDS011;12634;50.852;5.676;2023-12-20T10:15:29;7.38;;;1.85;;
24467;SDS011;12634;50.852;5.676;2023-12-20T10:17:57;7.80;;;2.00;;
24467;SDS011;12634;50.852;5.676;2023-12-20T10:20:24;6.03;;;2.38;;
24467;SDS011;12634;50.852;5.676;2023-12-20T10:22:53;12.40;;;2.58;;
24467;SDS011;12634;50.852;5.676;2023-12-20T10:25:23;15.20;;;2.55;;
24467;SDS011;12634;50.852;5.676;2023-12-20T10:27:57;9.70;;;2.28;;
24467;SDS011;12634;50.852;5.676;2023-12-20T10:30:36;8.90;;;2.20;;
24467;SDS011;12634;50.852;5.676;2023-12-20T10:33:04;5.07;;;1.63;;
24467;SDS011;12634;50.852;5.676;2023-12-20T10:35:33;5.25;;;1.70;;
24467;SDS011;12634;50.852;5.676;2023-12-20T10:38:02;7.88;;;2.08;;
24467;SDS011;12634;50.852;5.676;2023-12-20T10:40:31;9.07;;;2.30;;
24467;SDS011;12634;50.852;5.676;2023-12-20T10:43:03;11.52;;;2.22;;
24467;SDS011;12634;50.852;5.676;2023-12-20T10:45:31;8.73;;;2.05;;
24467;SDS011;12634;50.852;5.676;2023-12-20T10:47:58;7.63;;;2.38;;
24467;SDS011;12634;50.852;5.676;2023-12-20T10:50:28;6.68;;;1.50;;
24467;SDS011;12634;50.852;5.676;2023-12-20T10:52:56;7.03;;;2.83;;
24467;SDS011;12634;50.852;5.676;2023-12-20T10:55:25;6.50;;;1.70;;
24467;SDS011;12634;50.852;5.676;2023-12-20T10:57:53;9.57;;;2.60;;
24467;SDS011;12634;50.852;5.676;2023-12-20T11:00:26;2.58;;;1.38;;
24467;SDS011;12634;50.852;5.676;2023-12-20T11:02:56;4.13;;;1.58;;
24467;SDS011;12634;50.852;5.676;2023-12-20T11:05:31;10.82;;;3.20;;
24467;SDS011;12634;50.852;5.676;2023-12-20T11:08:06;5.70;;;1.63;;
24467;SDS011;12634;50.852;5.676;2023-12-20T11:10:42;8.93;;;2.05;;
24467;SDS011;12634;50.852;5.676;2023-12-20T11:13:17;7.28;;;2.30;;
24467;SDS011;12634;50.852;5.676;2023-12-20T11:15:49;7.70;;;2.10;;
24467;SDS011;12634;50.852;5.676;2023-12-20T11:18:16;6.68;;;2.33;;
24467;SDS011;12634;50.852;5.676;2023-12-20T11:20:43;9.18;;;2.67;;
24467;SDS011;12634;50.852;5.676;2023-12-20T11:23:11;5.68;;;2.38;;
24467;SDS011;12634;50.852;5.676;2023-12-20T11:25:51;9.52;;;2.80;;
24467;SDS011;12634;50.852;5.676;2023-12-20T11:28:20;9.45;;;2.40;;
24467;SDS011;12634;50.852;5.676;2023-12-20T11:30:50;7.05;;;1.83;;
24467;SDS011;12634;50.852;5.676;2023-12-20T11:33:21;3.47;;;1.45;;
24467;SDS011;12634;50.852;5.676;2023-12-20T11:35:49;8.52;;;2.40;;
24467;SDS011;12634;50.852;5.676;2023-12-20T11:38:16;10.38;;;1.98;;
24467;SDS011;12634;50.852;5.676;2023-12-20T11:40:43;7.85;;;2.40;;
24467;SDS011;12634;50.852;5.676;2023-12-20T11:43:17;4.85;;;1.63;;
24467;SDS011;12634;50.852;5.676;2023-12-20T11:46:02;8.95;;;2.50;;
24467;SDS011;12634;50.852;5.676;2023-12-20T11:48:31;7.10;;;2.03;;
24467;SDS011;12634;50.852;5.676;2023-12-20T11:50:58;20.38;;;2.35;;
24467;SDS011;12634;50.852;5.676;2023-12-20T11:53:26;9.60;;;2.45;;
24467;SDS011;12634;50.852;5.676;2023-12-20T11:55:53;12.48;;;2.70;;
24467;SDS011;12634;50.852;5.676;2023-12-20T11:58:22;5.18;;;1.77;;
24467;SDS011;12634;50.852;5.676;2023-12-20T12:00:49;7.82;;;2.13;;
24467;SDS011;12634;50.852;5.676;2023-12-20T12:03:17;6.10;;;1.23;;
24467;SDS011;12634;50.852;5.676;2023-12-20T12:05:46;10.75;;;2.83;;
24467;SDS011;12634;50.852;5.676;2023-12-20T12:08:13;11.10;;;2.72;;
24467;SDS011;12634;50.852;5.676;2023-12-20T12:10:41;8.75;;;2.95;;
24467;SDS011;12634;50.852;5.676;2023-12-20T12:13:08;6.28;;;1.40;;
24467;SDS011;12634;50.852;5.676;2023-12-20T12:15:37;8.75;;;1.88;;
24467;SDS011;12634;50.852;5.676;2023-12-20T12:18:05;9.10;;;1.92;;
24467;SDS011;12634;50.852;5.676;2023-12-20T12:20:32;11.07;;;2.70;;
24467;SDS011;12634;50.852;5.676;2023-12-20T12:23:00;6.38;;;2.10;;
24467;SDS011;12634;50.852;5.676;2023-12-20T12:25:28;7.43;;;2.00;;
24467;SDS011;12634;50.852;5.676;2023-12-20T12:27:57;9.68;;;1.80;;
24467;SDS011;12634;50.852;5.676;2023-12-20T12:30:24;5.68;;;1.55;;
24467;SDS011;12634;50.852;5.676;2023-12-20T12:32:53;14.57;;;2.63;;
24467;SDS011;12634;50.852;5.676;2023-12-20T12:35:22;4.93;;;1.63;;
24467;SDS011;12634;50.852;5.676;2023-12-20T12:37:50;7.97;;;2.50;;
24467;SDS011;12634;50.852;5.676;2023-12-20T12:40:18;8.50;;;2.45;;
24467;SDS011;12634;50.852;5.676;2023-12-20T12:42:45;9.93;;;2.30;;
24467;SDS011;12634;50.852;5.676;2023-12-20T12:45:12;14.48;;;2.72;;
24467;SDS011;12634;50.852;5.676;2023-12-20T12:47:40;9.70;;;1.95;;
24467;SDS011;12634;50.852;5.676;2023-12-20T12:50:09;10.90;;;2.08;;
24467;SDS011;12634;50.852;5.676;2023-12-20T12:52:36;11.60;;;2.85;;
24467;SDS011;12634;50.852;5.676;2023-12-20T12:55:04;10.88;;;2.80;;
24467;SDS011;12634;50.852;5.676;2023-12-20T12:57:32;9.25;;;2.58;;
24467;SDS011;12634;50.852;5.676;2023-12-20T12:59:59;9.50;;;2.97;;
24467;SDS011;12634;50.852;5.676;2023-12-20T13:02:28;5.47;;;2.00;;
24467;SDS011;12634;50.852;5.676;2023-12-20T13:04:55;8.02;;;2.88;;
24467;SDS011;12634;50.852;5.676;2023-12-20T13:07:24;10.63;;;2.53;;
24467;SDS011;12634;50.852;5.676;2023-12-20T13:09:51;3.10;;;1.70;;
24467;SDS011;12634;50.852;5.676;2023-12-20T13:12:19;10.18;;;2.28;;
24467;SDS011;12634;50.852;5.676;2023-12-20T13:14:46;7.18;;;1.67;;
24467;SDS011;12634;50.852;5.676;2023-12-20T13:17:13;9.88;;;2.65;;
24467;SDS011;12634;50.852;5.676;2023-12-20T13:19:41;9.27;;;2.72;;
24467;SDS011;12634;50.852;5.676;2023-12-20T13:22:08;3.13;;;1.35;;
24467;SDS011;12634;50.852;5.676;2023-12-20T13:24:37;2.30;;;1.63;;
24467;SDS011;12634;50.852;5.676;2023-12-20T13:27:04;4.90;;;2.50;;
24467;SDS011;12634;50.852;5.676;2023-12-20T13:29:32;7.03;;;1.67;;
24467;SDS011;12634;50.852;5.676;2023-12-20T13:31:59;8.32;;;2.42;;
24467;SDS011;12634;50.852;5.676;2023-12-20T13:34:26;6.63;;;2.88;;
24467;SDS011;12634;50.852;5.676;2023-12-20T13:36:53;15.98;;;2.70;;
24467;SDS011;12634;50.852;5.676;2023-12-20T13:39:21;7.85;;;2.45;;
24467;SDS011;12634;50.852;5.676;2023-12-20T13:41:50;3.13;;;1.85;;
24467;SDS011;12634;50.852;5.676;2023-12-20T13:44:17;2.78;;;1.80;;
24467;SDS011;12634;50.852;5.676;2023-12-20T13:46:44;5.60;;;1.80;;
24467;SDS011;12634;50.852;5.676;2023-12-20T13:49:12;11.70;;;2.90;;
24467;SDS011;12634;50.852;5.676;2023-12-20T13:51:39;6.25;;;1.73;;
24467;SDS011;12634;50.852;5.676;2023-12-20T13:54:07;12.63;;;2.78;;
24467;SDS011;12634;50.852;5.676;2023-12-20T13:56:36;9.73;;;2.53;;
24467;SDS011;12634;50.852;5.676;2023-12-20T13:59:04;11.07;;;2.40;;
24467;SDS011;12634;50.852;5.676;2023-12-20T14:01:31;7.80;;;2.53;;
24467;SDS011;12634;50.852;5.676;2023-12-20T14:03:59;4.47;;;2.22;;
24467;SDS011;12634;50.852;5.676;2023-12-20T14:06:26;11.40;;;2.97;;
24467;SDS011;12634;50.852;5.676;2023-12-20T14:08:54;5.60;;;2.40;;
24467;SDS011;12634;50.852;5.676;2023-12-20T14:11:22;8.25;;;2.47;;
24467;SDS011;12634;50.852;5.676;2023-12-20T14:13:49;6.88;;;2.45;;
24467;SDS011;12634;50.852;5.676;2023-12-20T14:16:17;9.30;;;2.47;;
24467;SDS011;12634;50.852;5.676;2023-12-20T14:18:44;7.20;;;2.28;;
24467;SDS011;12634;50.852;5.676;2023-12-20T14:21:12;10.48;;;2.40;;
24467;SDS011;12634;50.852;5.676;2023-12-20T14:23:39;10.43;;;2.63;;
24467;SDS011;12634;50.852;5.676;2023-12-20T14:26:06;8.80;;;2.53;;
24467;SDS011;12634;50.852;5.676;2023-12-20T14:28:36;10.68;;;2.50;;
24467;SDS011;12634;50.852;5.676;2023-12-20T14:31:04;12.40;;;2.75;;
24467;SDS011;12634;50.852;5.676;2023-12-20T14:33:33;7.55;;;2.72;;
24467;SDS011;12634;50.852;5.676;2023-12-20T14:36:01;8.88;;;2.55;;
24467;SDS011;12634;50.852;5.676;2023-12-20T14:38:30;11.85;;;3.05;;
24467;SDS011;12634;50.852;5.676;2023-12-20T14:40:57;8.23;;;2.78;;
24467;SDS011;12634;50.852;5.676;2023-12-20T14:43:25;2.13;;;1.23;;
24467;SDS011;12634;50.852;5.676;2023-12-20T14:45:53;4.90;;;2.55;;
24467;SDS011;12634;50.852;5.676;2023-12-20T14:48:20;7.63;;;2.35;;